sensor_id;sensor_type;location;lat;lon;timestamp;P1;durP1;ratioP1;P2;durP2;ratioP2
19691;SDS011;42748;50.016;19.890;2023-03-01T00:00:17;94.00;;;38.20;;
19691;SDS011;42748;50.016;19.890;2023-03-01T00:02:45;90.13;;;37.53;;
19691;SDS011;42748;50.016;19.890;2023-03-01T00:05:12;94.90;;;38.17;;
19691;SDS011;42748;50.016;19.890;2023-03-01T00:07:39;92.40;;;37.93;;
19691;SDS011;42748;50.016;19.890;2023-03-01T00:10:06;91.23;;;37.80;;
19691;SDS011;42748;50.016;19.890;2023-03-01T00:12:33;89.73;;;36.30;;
19691;SDS011;42748;50.016;19.890;2023-03-01T00:15:02;95.40;;;38.83;;
19691;SDS011;42748;50.016;19.890;2023-03-01T00:17:31;98.23;;;38.47;;
19691;SDS011;42748;50.016;19.890;2023-03-01T00:19:58;97.77;;;38.23;;
19691;SDS011;42748;50.016;19.890;2023-03-01T00:22:26;96.10;;;39.20;;
19691;SDS011;42748;50.016;19.890;2023-03-01T00:24:54;90.17;;;37.30;;
19691;SDS011;42748;50.016;19.890;2023-03-01T00:27:22;93.00;;;38.37;;
19691;SDS011;42748;50.016;19.890;2023-03-01T00:29:49;93.13;;;38.07;;
19691;SDS011;42748;50.016;19.890;2023-03-01T00:32:16;97.57;;;38.67;;
19691;SDS011;42748;50.016;19.890;2023-03-01T00:34:43;94.60;;;38.90;;
19691;SDS011;42748;50.016;19.890;2023-03-01T00:37:20;94.07;;;38.00;;
19691;SDS011;42748;50.016;19.890;2023-03-01T00:39:48;95.80;;;38.67;;
19691;SDS011;42748;50.016;19.890;2023-03-01T00:42:15;86.83;;;38.20;;
19691;SDS011;42748;50.016;19.890;2023-03-01T00:44:43;95.23;;;38.90;;
19691;SDS011;42748;50.016;19.890;2023-03-01T00:47:10;98.63;;;38.17;;
19691;SDS011;42748;50.016;19.890;2023-03-01T00:49:37;94.37;;;37.73;;
19691;SDS011;42748;50.016;19.890;2023-03-01T00:52:04;103.87;;;39.67;;
19691;SDS011;42748;50.016;19.890;2023-03-01T00:54:31;99.53;;;38.17;;
19691;SDS011;42748;50.016;19.890;2023-03-01T00:56:58;99.80;;;39.00;;
19691;SDS011;42748;50.016;19.890;2023-03-01T00:59:25;89.57;;;37.03;;
19691;SDS011;42748;50.016;19.890;2023-03-01T01:01:52;99.93;;;39.53;;
19691;SDS011;42748;50.016;19.890;2023-03-01T01:04:21;96.37;;;39.43;;
19691;SDS011;42748;50.016;19.890;2023-03-01T01:06:48;96.90;;;39.17;;
19691;SDS011;42748;50.016;19.890;2023-03-01T01:09:16;105.37;;;40.43;;
19691;SDS011;42748;50.016;19.890;2023-03-01T01:11:45;99.23;;;40.87;;
19691;SDS011;42748;50.016;19.890;2023-03-01T01:14:13;93.93;;;36.77;;
19691;SDS011;42748;50.016;19.890;2023-03-01T01:16:41;101.83;;;37.17;;
19691;SDS011;42748;50.016;19.890;2023-03-01T01:19:09;99.87;;;38.53;;
19691;SDS011;42748;50.016;19.890;2023-03-01T01:21:37;91.47;;;38.40;;
19691;SDS011;42748;50.016;19.890;2023-03-01T01:24:04;102.67;;;40.50;;
19691;SDS011;42748;50.016;19.890;2023-03-01T01:26:32;109.60;;;42.77;;
19691;SDS011;42748;50.016;19.890;2023-03-01T01:29:01;107.67;;;41.63;;
19691;SDS011;42748;50.016;19.890;2023-03-01T01:31:29;109.73;;;42.00;;
19691;SDS011;42748;50.016;19.890;2023-03-01T01:33:58;104.37;;;42.90;;
19691;SDS011;42748;50.016;19.890;2023-03-01T01:36:27;114.77;;;43.97;;
19691;SDS011;42748;50.016;19.890;2023-03-01T01:38:54;110.43;;;43.97;;
19691;SDS011;42748;50.016;19.890;2023-03-01T01:41:22;109.63;;;43.27;;
19691;SDS011;42748;50.016;19.890;2023-03-01T01:47:14;111.87;;;42.90;;
19691;SDS011;42748;50.016;19.890;2023-03-01T01:49:53;109.83;;;40.97;;
19691;SDS011;42748;50.016;19.890;2023-03-01T01:52:42;104.57;;;39.90;;
19691;SDS011;42748;50.016;19.890;2023-03-01T01:55:16;98.70;;;38.83;;
19691;SDS011;42748;50.016;19.890;2023-03-01T01:57:54;100.07;;;39.20;;
19691;SDS011;42748;50.016;19.890;2023-03-01T02:00:29;98.80;;;39.63;;
19691;SDS011;42748;50.016;19.890;2023-03-01T02:02:57;104.90;;;40.10;;
19691;SDS011;42748;50.016;19.890;2023-03-01T02:08:21;116.50;;;41.90;;
19691;SDS011;42748;50.016;19.890;2023-03-01T02:10:52;110.87;;;43.07;;
19691;SDS011;42748;50.016;19.890;2023-03-01T02:13:21;110.57;;;42.30;;
19691;SDS011;42748;50.016;19.890;2023-03-01T02:15:48;110.60;;;43.13;;
19691;SDS011;42748;50.016;19.890;2023-03-01T02:18:16;114.77;;;41.67;;
19691;SDS011;42748;50.016;19.890;2023-03-01T02:23:25;123.33;;;45.30;;
19691;SDS011;42748;50.016;19.890;2023-03-01T02:28:43;126.93;;;48.13;;
19691;SDS011;42748;50.016;19.890;2023-03-01T02:31:14;126.20;;;46.63;;
19691;SDS011;42748;50.016;19.890;2023-03-01T02:34:03;125.23;;;47.00;;
19691;SDS011;42748;50.016;19.890;2023-03-01T02:36:34;131.50;;;48.93;;
19691;SDS011;42748;50.016;19.890;2023-03-01T02:39:05;132.40;;;47.23;;
19691;SDS011;42748;50.016;19.890;2023-03-01T02:41:37;130.13;;;47.60;;
19691;SDS011;42748;50.016;19.890;2023-03-01T02:44:05;128.90;;;48.43;;
19691;SDS011;42748;50.016;19.890;2023-03-01T02:46:33;132.70;;;47.40;;
19691;SDS011;42748;50.016;19.890;2023-03-01T02:54:57;133.03;;;47.30;;
19691;SDS011;42748;50.016;19.890;2023-03-01T02:57:28;131.37;;;47.53;;
19691;SDS011;42748;50.016;19.890;2023-03-01T03:00:00;128.83;;;48.03;;
19691;SDS011;42748;50.016;19.890;2023-03-01T03:02:34;133.73;;;47.73;;
19691;SDS011;42748;50.016;19.890;2023-03-01T03:05:18;134.07;;;47.33;;
19691;SDS011;42748;50.016;19.890;2023-03-01T03:07:56;121.93;;;47.57;;
19691;SDS011;42748;50.016;19.890;2023-03-01T03:10:27;136.20;;;48.87;;
19691;SDS011;42748;50.016;19.890;2023-03-01T03:13:00;139.63;;;50.03;;
19691;SDS011;42748;50.016;19.890;2023-03-01T03:15:29;141.43;;;50.17;;
19691;SDS011;42748;50.016;19.890;2023-03-01T03:17:57;128.77;;;49.33;;
19691;SDS011;42748;50.016;19.890;2023-03-01T03:20:26;145.20;;;50.97;;
19691;SDS011;42748;50.016;19.890;2023-03-01T03:22:54;131.23;;;47.87;;
19691;SDS011;42748;50.016;19.890;2023-03-01T03:25:23;141.73;;;50.47;;
19691;SDS011;42748;50.016;19.890;2023-03-01T03:27:52;129.13;;;49.67;;
19691;SDS011;42748;50.016;19.890;2023-03-01T03:30:26;133.07;;;49.20;;
19691;SDS011;42748;50.016;19.890;2023-03-01T03:32:56;137.07;;;50.07;;
19691;SDS011;42748;50.016;19.890;2023-03-01T03:35:26;145.47;;;52.43;;
19691;SDS011;42748;50.016;19.890;2023-03-01T03:37:58;149.40;;;54.00;;
19691;SDS011;42748;50.016;19.890;2023-03-01T03:40:38;145.90;;;52.37;;
19691;SDS011;42748;50.016;19.890;2023-03-01T03:43:09;147.73;;;52.47;;
19691;SDS011;42748;50.016;19.890;2023-03-01T03:45:38;142.93;;;51.00;;
19691;SDS011;42748;50.016;19.890;2023-03-01T03:48:07;147.43;;;51.77;;
19691;SDS011;42748;50.016;19.890;2023-03-01T03:50:36;131.77;;;49.73;;
19691;SDS011;42748;50.016;19.890;2023-03-01T03:53:06;142.10;;;50.80;;
19691;SDS011;42748;50.016;19.890;2023-03-01T03:55:35;130.60;;;48.67;;
19691;SDS011;42748;50.016;19.890;2023-03-01T03:58:09;141.87;;;50.37;;
19691;SDS011;42748;50.016;19.890;2023-03-01T04:00:38;138.20;;;48.77;;
19691;SDS011;42748;50.016;19.890;2023-03-01T04:03:10;137.23;;;47.43;;
19691;SDS011;42748;50.016;19.890;2023-03-01T04:05:40;134.30;;;49.27;;
19691;SDS011;42748;50.016;19.890;2023-03-01T04:08:08;135.40;;;48.97;;
19691;SDS011;42748;50.016;19.890;2023-03-01T04:10:39;135.23;;;49.17;;
19691;SDS011;42748;50.016;19.890;2023-03-01T04:13:09;137.30;;;48.30;;
19691;SDS011;42748;50.016;19.890;2023-03-01T04:15:38;132.70;;;48.10;;
19691;SDS011;42748;50.016;19.890;2023-03-01T04:18:06;135.57;;;49.00;;
19691;SDS011;42748;50.016;19.890;2023-03-01T04:20:34;129.27;;;47.20;;
19691;SDS011;42748;50.016;19.890;2023-03-01T04:23:04;143.77;;;49.90;;
19691;SDS011;42748;50.016;19.890;2023-03-01T04:25:38;136.67;;;48.93;;
19691;SDS011;42748;50.016;19.890;2023-03-01T04:28:07;147.70;;;50.00;;
19691;SDS011;42748;50.016;19.890;2023-03-01T04:30:35;140.20;;;50.33;;
19691;SDS011;42748;50.016;19.890;2023-03-01T04:33:03;143.50;;;50.00;;
19691;SDS011;42748;50.016;19.890;2023-03-01T04:35:32;146.07;;;52.13;;
19691;SDS011;42748;50.016;19.890;2023-03-01T04:38:01;154.20;;;52.60;;
19691;SDS011;42748;50.016;19.890;2023-03-01T04:40:28;140.37;;;50.67;;
19691;SDS011;42748;50.016;19.890;2023-03-01T04:42:55;138.07;;;50.40;;
19691;SDS011;42748;50.016;19.890;2023-03-01T04:45:23;152.70;;;52.83;;
19691;SDS011;42748;50.016;19.890;2023-03-01T04:47:50;140.43;;;51.53;;
19691;SDS011;42748;50.016;19.890;2023-03-01T04:50:20;138.03;;;49.53;;
19691;SDS011;42748;50.016;19.890;2023-03-01T04:52:49;144.47;;;52.03;;
19691;SDS011;42748;50.016;19.890;2023-03-01T04:55:16;156.27;;;51.27;;
19691;SDS011;42748;50.016;19.890;2023-03-01T04:57:44;141.97;;;50.33;;
19691;SDS011;42748;50.016;19.890;2023-03-01T05:00:13;140.10;;;50.83;;
19691;SDS011;42748;50.016;19.890;2023-03-01T05:02:50;136.63;;;49.37;;
19691;SDS011;42748;50.016;19.890;2023-03-01T05:05:23;139.60;;;49.27;;
19691;SDS011;42748;50.016;19.890;2023-03-01T05:07:53;138.37;;;47.57;;
19691;SDS011;42748;50.016;19.890;2023-03-01T05:10:22;139.40;;;49.70;;
19691;SDS011;42748;50.016;19.890;2023-03-01T05:12:49;122.43;;;43.70;;
19691;SDS011;42748;50.016;19.890;2023-03-01T05:15:18;139.97;;;49.77;;
19691;SDS011;42748;50.016;19.890;2023-03-01T05:17:48;136.60;;;47.80;;
19691;SDS011;42748;50.016;19.890;2023-03-01T05:20:16;139.10;;;50.07;;
19691;SDS011;42748;50.016;19.890;2023-03-01T05:22:43;140.43;;;51.07;;
19691;SDS011;42748;50.016;19.890;2023-03-01T05:25:10;142.17;;;50.77;;
19691;SDS011;42748;50.016;19.890;2023-03-01T05:27:40;137.23;;;50.97;;
19691;SDS011;42748;50.016;19.890;2023-03-01T05:30:07;153.10;;;53.70;;
19691;SDS011;42748;50.016;19.890;2023-03-01T05:32:45;151.70;;;53.10;;
19691;SDS011;42748;50.016;19.890;2023-03-01T05:35:15;152.80;;;51.93;;
19691;SDS011;42748;50.016;19.890;2023-03-01T05:37:44;144.90;;;51.00;;
19691;SDS011;42748;50.016;19.890;2023-03-01T05:40:14;158.03;;;54.23;;
19691;SDS011;42748;50.016;19.890;2023-03-01T05:42:46;153.20;;;53.87;;
19691;SDS011;42748;50.016;19.890;2023-03-01T05:45:13;149.30;;;51.60;;
19691;SDS011;42748;50.016;19.890;2023-03-01T05:47:42;148.67;;;52.20;;
19691;SDS011;42748;50.016;19.890;2023-03-01T05:50:11;148.57;;;53.40;;
19691;SDS011;42748;50.016;19.890;2023-03-01T05:52:50;139.13;;;50.57;;
19691;SDS011;42748;50.016;19.890;2023-03-01T05:55:20;139.83;;;50.93;;
19691;SDS011;42748;50.016;19.890;2023-03-01T05:57:47;143.77;;;51.23;;
19691;SDS011;42748;50.016;19.890;2023-03-01T06:00:15;151.00;;;51.90;;
19691;SDS011;42748;50.016;19.890;2023-03-01T06:02:44;144.53;;;51.53;;
19691;SDS011;42748;50.016;19.890;2023-03-01T06:05:12;142.60;;;50.20;;
19691;SDS011;42748;50.016;19.890;2023-03-01T06:07:40;137.43;;;49.47;;
19691;SDS011;42748;50.016;19.890;2023-03-01T06:10:08;134.03;;;50.43;;
19691;SDS011;42748;50.016;19.890;2023-03-01T06:12:36;131.90;;;48.93;;
19691;SDS011;42748;50.016;19.890;2023-03-01T06:15:05;133.90;;;48.67;;
19691;SDS011;42748;50.016;19.890;2023-03-01T06:17:36;144.63;;;54.20;;
19691;SDS011;42748;50.016;19.890;2023-03-01T06:22:36;131.80;;;50.90;;
19691;SDS011;42748;50.016;19.890;2023-03-01T06:25:03;130.60;;;50.57;;
19691;SDS011;42748;50.016;19.890;2023-03-01T06:27:31;134.47;;;51.27;;
19691;SDS011;42748;50.016;19.890;2023-03-01T06:29:58;129.67;;;49.43;;
19691;SDS011;42748;50.016;19.890;2023-03-01T06:32:25;128.50;;;50.30;;
19691;SDS011;42748;50.016;19.890;2023-03-01T06:34:52;125.43;;;50.83;;
19691;SDS011;42748;50.016;19.890;2023-03-01T06:37:19;130.33;;;52.20;;
19691;SDS011;42748;50.016;19.890;2023-03-01T06:39:47;138.10;;;54.37;;
19691;SDS011;42748;50.016;19.890;2023-03-01T06:42:14;130.10;;;53.23;;
19691;SDS011;42748;50.016;19.890;2023-03-01T06:44:41;130.50;;;53.30;;
19691;SDS011;42748;50.016;19.890;2023-03-01T06:47:08;139.00;;;55.07;;
19691;SDS011;42748;50.016;19.890;2023-03-01T06:49:35;132.67;;;52.27;;
19691;SDS011;42748;50.016;19.890;2023-03-01T06:52:02;124.67;;;52.57;;
19691;SDS011;42748;50.016;19.890;2023-03-01T06:54:29;130.63;;;52.90;;
19691;SDS011;42748;50.016;19.890;2023-03-01T06:56:56;129.30;;;51.87;;
19691;SDS011;42748;50.016;19.890;2023-03-01T06:59:23;127.63;;;52.17;;
19691;SDS011;42748;50.016;19.890;2023-03-01T07:01:50;122.90;;;52.43;;
19691;SDS011;42748;50.016;19.890;2023-03-01T07:04:17;127.40;;;52.97;;
19691;SDS011;42748;50.016;19.890;2023-03-01T07:06:44;130.17;;;55.30;;
19691;SDS011;42748;50.016;19.890;2023-03-01T07:09:11;130.03;;;53.77;;
19691;SDS011;42748;50.016;19.890;2023-03-01T07:11:38;129.40;;;53.13;;
19691;SDS011;42748;50.016;19.890;2023-03-01T07:14:05;129.37;;;54.97;;
19691;SDS011;42748;50.016;19.890;2023-03-01T07:16:33;133.67;;;54.40;;
19691;SDS011;42748;50.016;19.890;2023-03-01T07:19:00;128.80;;;54.97;;
19691;SDS011;42748;50.016;19.890;2023-03-01T07:21:27;130.57;;;55.53;;
19691;SDS011;42748;50.016;19.890;2023-03-01T07:23:54;125.40;;;55.07;;
19691;SDS011;42748;50.016;19.890;2023-03-01T07:26:21;128.47;;;54.50;;
19691;SDS011;42748;50.016;19.890;2023-03-01T07:28:51;138.50;;;57.57;;
19691;SDS011;42748;50.016;19.890;2023-03-01T07:31:18;120.47;;;53.67;;
19691;SDS011;42748;50.016;19.890;2023-03-01T07:33:45;115.43;;;50.07;;
19691;SDS011;42748;50.016;19.890;2023-03-01T07:36:12;104.27;;;46.50;;
19691;SDS011;42748;50.016;19.890;2023-03-01T07:38:39;107.67;;;45.00;;
19691;SDS011;42748;50.016;19.890;2023-03-01T07:41:06;100.77;;;45.17;;
19691;SDS011;42748;50.016;19.890;2023-03-01T07:43:34;110.07;;;47.07;;
19691;SDS011;42748;50.016;19.890;2023-03-01T07:46:01;114.03;;;48.00;;
19691;SDS011;42748;50.016;19.890;2023-03-01T07:48:30;105.93;;;46.73;;
19691;SDS011;42748;50.016;19.890;2023-03-01T07:50:59;98.97;;;43.83;;
19691;SDS011;42748;50.016;19.890;2023-03-01T07:53:30;108.03;;;46.75;;
19691;SDS011;42748;50.016;19.890;2023-03-01T07:56:02;103.10;;;46.13;;
19691;SDS011;42748;50.016;19.890;2023-03-01T07:58:30;108.35;;;47.00;;
19691;SDS011;42748;50.016;19.890;2023-03-01T08:01:00;109.43;;;49.63;;
19691;SDS011;42748;50.016;19.890;2023-03-01T08:03:31;102.80;;;48.10;;
19691;SDS011;42748;50.016;19.890;2023-03-01T08:06:00;105.13;;;45.00;;
19691;SDS011;42748;50.016;19.890;2023-03-01T08:08:27;110.30;;;48.72;;
19691;SDS011;42748;50.016;19.890;2023-03-01T08:10:58;114.57;;;51.70;;
19691;SDS011;42748;50.016;19.890;2023-03-01T08:13:26;111.70;;;51.72;;
19691;SDS011;42748;50.016;19.890;2023-03-01T08:15:54;106.03;;;48.42;;
19691;SDS011;42748;50.016;19.890;2023-03-01T08:18:21;108.07;;;47.75;;
19691;SDS011;42748;50.016;19.890;2023-03-01T08:20:48;102.50;;;47.42;;
19691;SDS011;42748;50.016;19.890;2023-03-01T08:23:15;109.30;;;47.10;;
19691;SDS011;42748;50.016;19.890;2023-03-01T08:25:42;103.47;;;46.53;;
19691;SDS011;42748;50.016;19.890;2023-03-01T08:28:09;102.35;;;46.65;;
19691;SDS011;42748;50.016;19.890;2023-03-01T08:30:36;104.30;;;47.47;;
19691;SDS011;42748;50.016;19.890;2023-03-01T08:33:03;96.65;;;44.60;;
19691;SDS011;42748;50.016;19.890;2023-03-01T08:35:30;95.13;;;44.50;;
19691;SDS011;42748;50.016;19.890;2023-03-01T08:37:57;94.45;;;44.53;;
19691;SDS011;42748;50.016;19.890;2023-03-01T08:40:24;94.85;;;43.88;;
19691;SDS011;42748;50.016;19.890;2023-03-01T08:42:51;91.47;;;45.10;;
19691;SDS011;42748;50.016;19.890;2023-03-01T08:45:19;94.13;;;42.35;;
19691;SDS011;42748;50.016;19.890;2023-03-01T08:47:46;92.78;;;44.67;;
19691;SDS011;42748;50.016;19.890;2023-03-01T08:50:13;94.75;;;45.20;;
19691;SDS011;42748;50.016;19.890;2023-03-01T08:52:40;99.13;;;42.60;;
19691;SDS011;42748;50.016;19.890;2023-03-01T08:55:07;84.82;;;41.45;;
19691;SDS011;42748;50.016;19.890;2023-03-01T08:57:35;91.13;;;42.53;;
19691;SDS011;42748;50.016;19.890;2023-03-01T09:00:02;82.25;;;39.90;;
19691;SDS011;42748;50.016;19.890;2023-03-01T09:02:30;83.05;;;39.92;;
19691;SDS011;42748;50.016;19.890;2023-03-01T09:04:59;80.20;;;39.72;;
19691;SDS011;42748;50.016;19.890;2023-03-01T09:07:26;78.65;;;38.13;;
19691;SDS011;42748;50.016;19.890;2023-03-01T09:09:55;74.07;;;36.55;;
19691;SDS011;42748;50.016;19.890;2023-03-01T09:12:23;76.00;;;35.20;;
19691;SDS011;42748;50.016;19.890;2023-03-01T09:14:51;65.30;;;32.65;;
19691;SDS011;42748;50.016;19.890;2023-03-01T09:17:18;63.10;;;32.47;;
19691;SDS011;42748;50.016;19.890;2023-03-01T09:19:47;60.75;;;30.98;;
19691;SDS011;42748;50.016;19.890;2023-03-01T09:22:15;49.35;;;25.95;;
19691;SDS011;42748;50.016;19.890;2023-03-01T09:24:42;46.55;;;24.70;;
19691;SDS011;42748;50.016;19.890;2023-03-01T09:27:10;52.88;;;26.40;;
19691;SDS011;42748;50.016;19.890;2023-03-01T09:29:39;54.88;;;29.15;;
19691;SDS011;42748;50.016;19.890;2023-03-01T09:32:06;54.85;;;27.27;;
19691;SDS011;42748;50.016;19.890;2023-03-01T09:34:34;42.75;;;22.23;;
19691;SDS011;42748;50.016;19.890;2023-03-01T09:37:21;40.58;;;20.65;;
19691;SDS011;42748;50.016;19.890;2023-03-01T09:39:48;41.08;;;22.08;;
19691;SDS011;42748;50.016;19.890;2023-03-01T09:42:15;41.30;;;21.30;;
19691;SDS011;42748;50.016;19.890;2023-03-01T09:44:47;45.05;;;23.90;;
19691;SDS011;42748;50.016;19.890;2023-03-01T09:47:24;48.65;;;24.90;;
19691;SDS011;42748;50.016;19.890;2023-03-01T09:50:18;47.78;;;24.48;;
19691;SDS011;42748;50.016;19.890;2023-03-01T09:53:09;46.55;;;25.35;;
19691;SDS011;42748;50.016;19.890;2023-03-01T09:55:59;51.75;;;25.20;;
19691;SDS011;42748;50.016;19.890;2023-03-01T10:04:41;47.30;;;25.27;;
19691;SDS011;42748;50.016;19.890;2023-03-01T10:07:02;47.72;;;25.52;;
19691;SDS011;42748;50.016;19.890;2023-03-01T10:09:39;46.22;;;25.10;;
19691;SDS011;42748;50.016;19.890;2023-03-01T10:12:12;50.50;;;25.27;;
19691;SDS011;42748;50.016;19.890;2023-03-01T10:20:19;55.15;;;25.58;;
19691;SDS011;42748;50.016;19.890;2023-03-01T10:22:46;50.38;;;23.98;;
19691;SDS011;42748;50.016;19.890;2023-03-01T10:25:24;49.92;;;24.52;;
19691;SDS011;42748;50.016;19.890;2023-03-01T10:28:17;52.65;;;24.70;;
19691;SDS011;42748;50.016;19.890;2023-03-01T10:30:57;50.17;;;24.38;;
19691;SDS011;42748;50.016;19.890;2023-03-01T10:33:27;48.35;;;23.52;;
19691;SDS011;42748;50.016;19.890;2023-03-01T10:35:57;50.10;;;24.67;;
19691;SDS011;42748;50.016;19.890;2023-03-01T10:38:25;53.83;;;26.33;;
19691;SDS011;42748;50.016;19.890;2023-03-01T10:40:56;54.75;;;26.80;;
19691;SDS011;42748;50.016;19.890;2023-03-01T10:43:25;55.38;;;26.83;;
19691;SDS011;42748;50.016;19.890;2023-03-01T10:45:58;51.13;;;26.55;;
19691;SDS011;42748;50.016;19.890;2023-03-01T10:48:25;56.60;;;25.25;;
19691;SDS011;42748;50.016;19.890;2023-03-01T10:53:43;56.38;;;26.80;;
19691;SDS011;42748;50.016;19.890;2023-03-01T10:56:16;57.25;;;26.15;;
19691;SDS011;42748;50.016;19.890;2023-03-01T10:59:19;52.78;;;24.85;;
19691;SDS011;42748;50.016;19.890;2023-03-01T11:07:28;48.05;;;23.13;;
19691;SDS011;42748;50.016;19.890;2023-03-01T11:09:55;49.28;;;22.27;;
19691;SDS011;42748;50.016;19.890;2023-03-01T11:12:22;48.60;;;23.20;;
19691;SDS011;42748;50.016;19.890;2023-03-01T11:14:52;45.58;;;22.42;;
19691;SDS011;42748;50.016;19.890;2023-03-01T11:17:21;45.58;;;22.08;;
19691;SDS011;42748;50.016;19.890;2023-03-01T11:19:59;50.00;;;23.33;;
19691;SDS011;42748;50.016;19.890;2023-03-01T11:25:27;55.38;;;25.20;;
19691;SDS011;42748;50.016;19.890;2023-03-01T11:27:59;50.67;;;25.45;;
19691;SDS011;42748;50.016;19.890;2023-03-01T11:35:37;46.75;;;24.40;;
19691;SDS011;42748;50.016;19.890;2023-03-01T11:38:22;56.38;;;24.75;;
19691;SDS011;42748;50.016;19.890;2023-03-01T11:40:57;53.33;;;24.52;;
19691;SDS011;42748;50.016;19.890;2023-03-01T11:49:27;52.83;;;23.60;;
19691;SDS011;42748;50.016;19.890;2023-03-01T11:55:35;52.30;;;22.98;;
19691;SDS011;42748;50.016;19.890;2023-03-01T11:58:45;45.80;;;21.30;;
19691;SDS011;42748;50.016;19.890;2023-03-01T12:01:17;44.90;;;20.23;;
19691;SDS011;42748;50.016;19.890;2023-03-01T12:07:15;37.70;;;18.25;;
19691;SDS011;42748;50.016;19.890;2023-03-01T12:09:56;40.50;;;18.17;;
19691;SDS011;42748;50.016;19.890;2023-03-01T12:12:49;41.42;;;17.98;;
19691;SDS011;42748;50.016;19.890;2023-03-01T12:37:36;41.20;;;20.48;;
19691;SDS011;42748;50.016;19.890;2023-03-01T12:46:01;43.72;;;19.98;;
19691;SDS011;42748;50.016;19.890;2023-03-01T12:51:26;51.67;;;23.80;;
19691;SDS011;42748;50.016;19.890;2023-03-01T12:53:58;51.10;;;23.08;;
19691;SDS011;42748;50.016;19.890;2023-03-01T12:56:31;52.47;;;24.08;;
19691;SDS011;42748;50.016;19.890;2023-03-01T13:04:40;58.05;;;25.10;;
19691;SDS011;42748;50.016;19.890;2023-03-01T13:07:22;60.35;;;25.17;;
19691;SDS011;42748;50.016;19.890;2023-03-01T13:20:35;50.88;;;23.75;;
19691;SDS011;42748;50.016;19.890;2023-03-01T13:30:58;54.78;;;25.13;;
19691;SDS011;42748;50.016;19.890;2023-03-01T13:35:59;57.67;;;23.70;;
19691;SDS011;42748;50.016;19.890;2023-03-01T13:41:16;51.08;;;22.63;;
19691;SDS011;42748;50.016;19.890;2023-03-01T13:46:53;46.90;;;20.85;;
19691;SDS011;42748;50.016;19.890;2023-03-01T13:49:26;40.97;;;18.35;;
19691;SDS011;42748;50.016;19.890;2023-03-01T13:57:48;44.78;;;20.92;;
19691;SDS011;42748;50.016;19.890;2023-03-01T14:00:36;43.63;;;19.52;;
19691;SDS011;42748;50.016;19.890;2023-03-01T14:03:08;45.53;;;20.00;;
19691;SDS011;42748;50.016;19.890;2023-03-01T14:05:38;41.28;;;19.63;;
19691;SDS011;42748;50.016;19.890;2023-03-01T14:08:21;36.65;;;19.02;;
19691;SDS011;42748;50.016;19.890;2023-03-01T14:22:20;43.33;;;20.15;;
19691;SDS011;42748;50.016;19.890;2023-03-01T14:24:53;42.75;;;19.40;;
19691;SDS011;42748;50.016;19.890;2023-03-01T14:27:38;44.05;;;19.70;;
19691;SDS011;42748;50.016;19.890;2023-03-01T14:30:16;42.03;;;19.05;;
19691;SDS011;42748;50.016;19.890;2023-03-01T14:33:18;45.45;;;19.17;;
19691;SDS011;42748;50.016;19.890;2023-03-01T14:35:53;39.55;;;18.05;;
19691;SDS011;42748;50.016;19.890;2023-03-01T14:38:43;41.53;;;19.75;;
19691;SDS011;42748;50.016;19.890;2023-03-01T14:41:13;43.33;;;19.75;;
19691;SDS011;42748;50.016;19.890;2023-03-01T14:43:45;43.38;;;19.40;;
19691;SDS011;42748;50.016;19.890;2023-03-01T14:46:33;40.22;;;19.38;;
19691;SDS011;42748;50.016;19.890;2023-03-01T14:49:09;41.90;;;20.13;;
19691;SDS011;42748;50.016;19.890;2023-03-01T14:51:48;40.85;;;18.73;;
19691;SDS011;42748;50.016;19.890;2023-03-01T14:54:42;37.55;;;18.23;;
19691;SDS011;42748;50.016;19.890;2023-03-01T14:57:15;38.47;;;17.90;;
19691;SDS011;42748;50.016;19.890;2023-03-01T14:59:44;39.80;;;16.95;;
19691;SDS011;42748;50.016;19.890;2023-03-01T15:02:17;37.17;;;18.02;;
19691;SDS011;42748;50.016;19.890;2023-03-01T15:04:46;34.72;;;17.38;;
19691;SDS011;42748;50.016;19.890;2023-03-01T15:07:15;37.55;;;17.40;;
19691;SDS011;42748;50.016;19.890;2023-03-01T15:09:43;35.38;;;16.80;;
19691;SDS011;42748;50.016;19.890;2023-03-01T15:15:00;35.27;;;15.97;;
19691;SDS011;42748;50.016;19.890;2023-03-01T15:17:36;38.07;;;17.10;;
19691;SDS011;42748;50.016;19.890;2023-03-01T15:20:15;34.80;;;16.30;;
19691;SDS011;42748;50.016;19.890;2023-03-01T15:22:47;34.60;;;16.20;;
19691;SDS011;42748;50.016;19.890;2023-03-01T15:25:18;33.97;;;15.87;;
19691;SDS011;42748;50.016;19.890;2023-03-01T15:27:48;38.53;;;16.67;;
19691;SDS011;42748;50.016;19.890;2023-03-01T15:30:21;35.47;;;16.50;;
19691;SDS011;42748;50.016;19.890;2023-03-01T15:36:50;32.20;;;15.27;;
19691;SDS011;42748;50.016;19.890;2023-03-01T15:39:03;34.67;;;15.17;;
19691;SDS011;42748;50.016;19.890;2023-03-01T15:41:37;33.13;;;15.63;;
19691;SDS011;42748;50.016;19.890;2023-03-01T15:44:17;34.97;;;16.00;;
19691;SDS011;42748;50.016;19.890;2023-03-01T15:47:00;34.63;;;15.10;;
19691;SDS011;42748;50.016;19.890;2023-03-01T15:49:39;36.30;;;16.13;;
19691;SDS011;42748;50.016;19.890;2023-03-01T15:54:59;39.60;;;16.33;;
19691;SDS011;42748;50.016;19.890;2023-03-01T15:57:28;41.77;;;16.53;;
19691;SDS011;42748;50.016;19.890;2023-03-01T15:59:56;35.03;;;15.93;;
19691;SDS011;42748;50.016;19.890;2023-03-01T16:02:23;35.03;;;16.57;;
19691;SDS011;42748;50.016;19.890;2023-03-01T16:04:51;35.63;;;15.67;;
19691;SDS011;42748;50.016;19.890;2023-03-01T16:07:20;30.87;;;15.20;;
19691;SDS011;42748;50.016;19.890;2023-03-01T16:09:47;35.47;;;15.67;;
19691;SDS011;42748;50.016;19.890;2023-03-01T16:12:14;33.83;;;15.77;;
19691;SDS011;42748;50.016;19.890;2023-03-01T16:14:42;33.83;;;16.30;;
19691;SDS011;42748;50.016;19.890;2023-03-01T16:17:09;30.27;;;15.53;;
19691;SDS011;42748;50.016;19.890;2023-03-01T16:19:37;34.33;;;16.07;;
19691;SDS011;42748;50.016;19.890;2023-03-01T16:22:04;37.37;;;16.57;;
19691;SDS011;42748;50.016;19.890;2023-03-01T16:24:32;35.93;;;16.47;;
19691;SDS011;42748;50.016;19.890;2023-03-01T16:26:59;33.73;;;16.27;;
19691;SDS011;42748;50.016;19.890;2023-03-01T16:29:26;42.57;;;16.13;;
19691;SDS011;42748;50.016;19.890;2023-03-01T16:31:53;39.80;;;16.87;;
19691;SDS011;42748;50.016;19.890;2023-03-01T16:34:20;41.40;;;17.20;;
19691;SDS011;42748;50.016;19.890;2023-03-01T16:36:48;35.73;;;16.83;;
19691;SDS011;42748;50.016;19.890;2023-03-01T16:39:15;38.10;;;17.00;;
19691;SDS011;42748;50.016;19.890;2023-03-01T16:41:43;41.67;;;17.57;;
19691;SDS011;42748;50.016;19.890;2023-03-01T16:44:10;37.63;;;17.17;;
19691;SDS011;42748;50.016;19.890;2023-03-01T16:46:37;42.70;;;19.10;;
19691;SDS011;42748;50.016;19.890;2023-03-01T16:49:04;38.97;;;18.20;;
19691;SDS011;42748;50.016;19.890;2023-03-01T16:51:31;43.27;;;18.10;;
19691;SDS011;42748;50.016;19.890;2023-03-01T16:54:01;39.10;;;18.70;;